createdAt,value
2019-02-25T00:01:37.002Z,5.17
2019-02-25T00:04:08.591Z,5.08
2019-02-25T00:06:41.998Z,5.05
2019-02-25T00:09:13.653Z,5.02
2019-02-25T00:11:46.591Z,4.98
2019-02-25T00:14:20.094Z,5.00
2019-02-25T00:16:52.710Z,5.08
2019-02-25T00:19:24.222Z,5.07
2019-02-25T00:21:56.548Z,4.96
2019-02-25T00:24:28.330Z,5.01
2019-02-25T00:26:59.671Z,5.01
2019-02-25T00:29:31.027Z,5.14
2019-02-25T00:32:02.581Z,5.44
2019-02-25T00:34:34.741Z,5.64
2019-02-25T00:37:06.164Z,5.46
2019-02-25T00:39:37.878Z,5.34
2019-02-25T00:42:09.206Z,5.64
2019-02-25T00:44:40.486Z,5.74
2019-02-25T00:47:16.116Z,5.96
2019-02-25T00:49:47.872Z,6.00
2019-02-25T00:52:19.157Z,5.80
2019-02-25T00:54:50.617Z,5.70
2019-02-25T00:57:22.841Z,5.87
2019-02-25T00:59:54.476Z,5.98
2019-02-25T01:02:25.974Z,6.05
2019-02-25T01:04:57.994Z,5.92
2019-02-25T01:07:29.305Z,5.86
2019-02-25T01:10:00.963Z,5.79
2019-02-25T01:12:34.081Z,5.79
2019-02-25T01:15:06.264Z,5.88
2019-02-25T01:17:38.040Z,5.87
2019-02-25T01:20:10.193Z,5.84
2019-02-25T01:22:41.920Z,5.78
2019-02-25T01:25:14.306Z,5.62
2019-02-25T01:27:45.662Z,5.63
2019-02-25T01:30:18.115Z,5.72
2019-02-25T01:32:49.544Z,5.74
2019-02-25T01:35:21.220Z,5.64
2019-02-25T01:37:52.627Z,5.51
2019-02-25T01:40:24.353Z,5.26
2019-02-25T01:42:56.635Z,4.97
2019-02-25T01:45:28.687Z,4.96
2019-02-25T01:48:00.112Z,5.19
2019-02-25T01:50:32.099Z,5.13
2019-02-25T01:53:03.351Z,5.12
2019-02-25T01:55:34.721Z,5.25
2019-02-25T01:58:07.035Z,5.49
2019-02-25T02:00:39.750Z,5.52
2019-02-25T02:03:11.174Z,5.57
2019-02-25T02:05:42.587Z,5.64
2019-02-25T02:08:15.163Z,5.57
2019-02-25T02:10:46.754Z,5.37
2019-02-25T02:13:18.590Z,5.42
2019-02-25T02:15:50.124Z,5.55
2019-02-25T02:18:25.667Z,5.61
2019-02-25T02:21:00.501Z,5.42
2019-02-25T02:23:32.283Z,5.38
2019-02-25T02:26:03.690Z,5.31
2019-02-25T02:28:35.122Z,5.31
2019-02-25T02:31:06.377Z,5.17
2019-02-25T02:33:37.687Z,4.96
2019-02-25T02:36:11.743Z,5.03
2019-02-25T02:38:42.850Z,5.29
2019-02-25T02:41:14.485Z,5.46
2019-02-25T02:43:45.865Z,5.62
2019-02-25T02:46:23.770Z,5.58
2019-02-25T02:49:02.071Z,5.65
2019-02-25T02:51:34.208Z,5.27
2019-02-25T02:54:05.993Z,5.15
2019-02-25T02:56:37.933Z,5.08
2019-02-25T02:59:09.356Z,5.29
2019-02-25T03:01:41.037Z,5.40
2019-02-25T03:04:13.200Z,5.48
2019-02-25T03:06:44.837Z,5.35
2019-02-25T03:09:16.205Z,5.08
2019-02-25T03:11:47.592Z,4.45
2019-02-25T03:14:18.902Z,4.66
2019-02-25T03:16:50.301Z,4.94
2019-02-25T03:19:22.804Z,4.76
2019-02-25T03:21:54.185Z,4.50
2019-02-25T03:24:25.568Z,4.43
2019-02-25T03:26:56.908Z,4.49
2019-02-25T03:29:28.742Z,4.39
2019-02-25T03:31:59.953Z,4.68
2019-02-25T03:34:31.847Z,4.82
2019-02-25T03:37:03.191Z,4.78
2019-02-25T03:39:34.942Z,4.64
2019-02-25T03:42:06.398Z,4.73
2019-02-25T03:44:38.608Z,5.08
2019-02-25T03:47:10.145Z,5.02
2019-02-25T03:49:42.079Z,4.88
2019-02-25T03:52:13.552Z,5.11
2019-02-25T03:54:45.589Z,4.67
2019-02-25T03:57:16.989Z,4.55
2019-02-25T03:59:49.206Z,4.44
2019-02-25T04:02:20.667Z,4.61
2019-02-25T04:04:51.937Z,5.00
2019-02-25T04:07:23.371Z,5.16
2019-02-25T04:09:55.794Z,4.89
2019-02-25T04:12:28.315Z,4.98
2019-02-25T04:14:59.748Z,4.88
2019-02-25T04:24:19.272Z,4.78
2019-02-25T04:27:08.196Z,4.93
2019-02-25T04:29:39.680Z,4.70
2019-02-25T04:32:11.050Z,4.43
2019-02-25T04:34:42.339Z,4.54
2019-02-25T04:37:13.851Z,4.52
2019-02-25T04:39:45.557Z,4.77
2019-02-25T04:42:18.099Z,4.99
2019-02-25T04:44:51.347Z,4.91
2019-02-25T04:47:23.598Z,4.67
2019-02-25T04:49:55.387Z,4.87
2019-02-25T04:52:27.144Z,4.65
2019-02-25T04:54:58.388Z,4.84
2019-02-25T04:57:29.706Z,4.87
2019-02-25T05:00:01.091Z,4.98
2019-02-25T05:02:32.980Z,4.97
2019-02-25T05:05:04.393Z,4.87
2019-02-25T05:07:36.431Z,4.65
2019-02-25T05:10:08.547Z,4.62
2019-02-25T05:12:42.091Z,4.77
2019-02-25T05:15:16.212Z,4.76
2019-02-25T05:17:48.073Z,4.88
2019-02-25T05:20:19.999Z,4.92
2019-02-25T05:22:52.435Z,4.97
2019-02-25T05:25:24.451Z,4.88
2019-02-25T05:27:57.065Z,4.76
2019-02-25T05:30:28.668Z,4.74
2019-02-25T05:33:00.430Z,4.86
2019-02-25T05:35:32.094Z,4.99
2019-02-25T05:38:04.155Z,4.98
2019-02-25T05:40:35.763Z,4.85
2019-02-25T05:43:07.792Z,4.75
2019-02-25T05:45:41.215Z,4.71
2019-02-25T05:48:12.973Z,4.82
2019-02-25T05:50:46.185Z,4.80
2019-02-25T05:53:18.024Z,4.83
2019-02-25T05:55:49.620Z,4.89
2019-02-25T05:58:21.331Z,4.51
2019-02-25T06:00:52.816Z,4.47
2019-02-25T06:03:25.813Z,4.50
2019-02-25T06:05:58.515Z,4.48
2019-02-25T06:08:30.634Z,4.64
2019-02-25T06:11:02.053Z,4.73
2019-02-25T06:13:36.490Z,4.70
2019-02-25T06:16:08.096Z,4.62
2019-02-25T06:18:39.564Z,4.63
2019-02-25T06:21:13.878Z,4.69
2019-02-25T06:23:48.464Z,4.68
2019-02-25T06:26:19.883Z,4.68
2019-02-25T06:28:51.569Z,4.83
2019-02-25T06:31:25.397Z,4.75
2019-02-25T06:33:56.650Z,4.59
2019-02-25T06:36:28.033Z,4.52
2019-02-25T06:38:59.840Z,4.74
2019-02-25T06:41:31.319Z,4.67
2019-02-25T06:44:02.836Z,4.46
2019-02-25T06:46:34.268Z,4.44
2019-02-25T06:49:06.190Z,4.19
2019-02-25T06:51:37.944Z,4.24
2019-02-25T06:54:10.258Z,4.33
2019-02-25T06:56:41.724Z,4.45
2019-02-25T06:59:13.189Z,4.48
2019-02-25T07:01:47.120Z,4.39
2019-02-25T07:04:39.787Z,4.54
2019-02-25T07:07:14.696Z,4.45
2019-02-25T07:09:57.391Z,4.57
2019-02-25T07:12:38.395Z,4.64
2019-02-25T07:15:41.742Z,4.56
2019-02-25T07:18:45.352Z,4.65
2019-02-25T07:21:38.402Z,4.82
2019-02-25T07:24:34.535Z,5.00
2019-02-25T07:27:24.024Z,5.13
2019-02-25T07:33:37.462Z,5.64
2019-02-25T07:36:27.808Z,5.52
2019-02-25T07:39:17.361Z,5.75
2019-02-25T07:42:07.167Z,5.78
2019-02-25T07:45:03.553Z,5.75
2019-02-25T07:47:53.836Z,5.88
2019-02-25T07:50:31.675Z,6.01
2019-02-25T07:53:18.955Z,6.00
2019-02-25T07:56:17.819Z,6.27
2019-02-25T07:59:10.742Z,6.40
2019-02-25T08:02:04.173Z,6.18
2019-02-25T08:05:01.386Z,6.11
2019-02-25T08:07:56.174Z,6.19
2019-02-25T08:10:46.098Z,5.96
2019-02-25T08:13:26.371Z,5.63
2019-02-25T08:16:15.393Z,5.74
2019-02-25T08:19:04.565Z,5.95
2019-02-25T08:21:55.181Z,6.15
2019-02-25T08:24:48.675Z,6.02
2019-02-25T08:27:32.942Z,6.13
2019-02-25T08:30:35.961Z,6.25
2019-02-25T08:33:32.916Z,6.44
2019-02-25T08:36:52.439Z,6.34
2019-02-25T08:39:38.333Z,6.11
2019-02-25T08:42:19.881Z,6.23
2019-02-25T08:44:57.933Z,6.33
2019-02-25T08:47:34.859Z,6.40
2019-02-25T08:50:29.402Z,6.43
2019-02-25T08:53:03.143Z,6.56
2019-02-25T08:55:36.887Z,6.61
2019-02-25T08:58:09.391Z,6.72
2019-02-25T09:00:42.255Z,6.68
2019-02-25T09:03:14.495Z,6.79
2019-02-25T09:05:46.090Z,6.94
2019-02-25T09:08:18.088Z,7.07
2019-02-25T09:10:50.667Z,7.31
2019-02-25T09:13:23.930Z,7.22
2019-02-25T09:15:57.657Z,7.38
2019-02-25T09:18:29.123Z,7.64
2019-02-25T09:23:52.901Z,7.79
2019-02-25T09:26:24.921Z,7.91
2019-02-25T09:28:57.487Z,8.01
2019-02-25T09:31:31.533Z,8.14
2019-02-25T09:34:04.445Z,8.20
2019-02-25T09:36:35.967Z,8.38
2019-02-25T09:39:16.671Z,8.54
2019-02-25T09:41:49.063Z,8.62
2019-02-25T09:44:20.746Z,8.75
2019-02-25T09:46:52.509Z,8.79
2019-02-25T09:49:25.320Z,8.93
2019-02-25T09:52:16.411Z,9.05
2019-02-25T09:54:48.166Z,9.00
2019-02-25T09:57:23.074Z,9.08
2019-02-25T09:59:55.064Z,9.21
2019-02-25T10:02:33.907Z,9.30
2019-02-25T10:05:10.993Z,9.40
2019-02-25T10:07:43.525Z,9.54
2019-02-25T10:10:15.435Z,9.63
2019-02-25T10:12:50.911Z,9.75
2019-02-25T10:15:25.326Z,9.88
2019-02-25T10:17:58.113Z,9.99
2019-02-25T10:20:30.402Z,10.02
2019-02-25T10:23:02.053Z,9.98
2019-02-25T10:25:34.064Z,9.95
2019-02-25T10:28:07.471Z,9.90
2019-02-25T10:30:39.535Z,10.01
2019-02-25T10:33:11.739Z,10.09
2019-02-25T10:35:43.316Z,10.01
2019-02-25T10:38:15.061Z,9.98
2019-02-25T10:40:47.506Z,10.02
2019-02-25T10:43:19.925Z,10.18
2019-02-25T10:45:52.666Z,10.34
2019-02-25T10:48:25.848Z,10.48
2019-02-25T10:50:58.150Z,10.52
2019-02-25T10:53:30.294Z,10.52
2019-02-25T10:56:16.725Z,10.56
2019-02-25T10:58:54.084Z,10.59
2019-02-25T11:01:25.567Z,10.58
2019-02-25T11:03:58.193Z,10.73
2019-02-25T11:06:35.433Z,10.77
2019-02-25T11:09:26.545Z,10.73
2019-02-25T11:12:00.125Z,10.74
2019-02-25T11:14:35.731Z,10.70
2019-02-25T11:17:07.123Z,10.80
2019-02-25T11:19:39.860Z,10.97
2019-02-25T11:22:12.606Z,11.04
2019-02-25T11:24:46.841Z,10.82
2019-02-25T11:27:18.634Z,10.91
2019-02-25T11:29:51.433Z,10.98
2019-02-25T11:32:24.408Z,11.13
2019-02-25T11:34:57.028Z,11.34
2019-02-25T11:37:28.642Z,11.53
2019-02-25T11:40:01.865Z,11.78
2019-02-25T11:42:35.094Z,11.70
2019-02-25T11:45:08.157Z,11.93
2019-02-25T11:47:39.662Z,11.75
2019-02-25T11:50:15.410Z,11.79
2019-02-25T11:52:47.002Z,11.61
2019-02-25T11:55:21.861Z,11.67
2019-02-25T11:57:53.060Z,11.82
2019-02-25T12:00:26.034Z,12.03
2019-02-25T12:02:57.481Z,12.10
2019-02-25T12:05:28.937Z,12.08
2019-02-25T12:08:00.562Z,12.20
2019-02-25T12:10:31.982Z,12.10
2019-02-25T12:13:04.305Z,12.08
2019-02-25T12:15:36.200Z,11.90
2019-02-25T12:18:07.806Z,11.77
2019-02-25T12:20:39.437Z,11.93
2019-02-25T12:23:11.886Z,12.28
2019-02-25T12:25:43.407Z,12.27
2019-02-25T12:28:16.937Z,12.32
2019-02-25T12:30:48.829Z,12.22
2019-02-25T12:33:20.215Z,12.16
2019-02-25T12:35:52.023Z,12.27
2019-02-25T12:38:23.789Z,12.30
2019-02-25T12:40:55.767Z,12.35
2019-02-25T12:43:27.786Z,12.38
2019-02-25T12:46:00.659Z,12.37
2019-02-25T12:48:32.247Z,12.52
2019-02-25T12:51:04.228Z,12.67
2019-02-25T12:53:41.276Z,12.73
2019-02-25T12:56:13.560Z,12.79
2019-02-25T12:58:45.123Z,12.68
2019-02-25T13:01:17.500Z,12.54
2019-02-25T13:03:49.055Z,12.47
2019-02-25T13:06:20.960Z,12.67
2019-02-25T13:08:52.495Z,12.74
2019-02-25T13:11:30.341Z,12.59
2019-02-25T13:14:01.949Z,12.39
2019-02-25T13:16:34.288Z,12.52
2019-02-25T13:19:08.526Z,12.84
2019-02-25T13:21:40.513Z,13.09
2019-02-25T13:24:11.906Z,13.06
2019-02-25T13:26:44.180Z,12.99
2019-02-25T13:29:19.283Z,12.82
2019-02-25T13:31:50.846Z,13.03
2019-02-25T13:34:24.293Z,13.03
2019-02-25T13:36:56.169Z,13.10
2019-02-25T13:39:27.788Z,13.21
2019-02-25T13:41:59.510Z,13.28
2019-02-25T13:44:31.444Z,13.50
2019-02-25T13:47:04.826Z,13.49
2019-02-25T13:49:36.791Z,13.31
2019-02-25T13:52:08.709Z,13.30
2019-02-25T13:54:41.646Z,13.37
2019-02-25T13:57:21.881Z,13.51
2019-02-25T14:00:55.478Z,13.57
2019-02-25T14:03:27.204Z,13.28
2019-02-25T14:05:59.031Z,13.19
2019-02-25T14:08:30.928Z,13.15
2019-02-25T14:11:02.497Z,13.12
2019-02-25T14:13:34.205Z,13.14
2019-02-25T14:16:06.046Z,13.14
2019-02-25T14:18:38.394Z,13.15
2019-02-25T14:21:10.436Z,13.33
2019-02-25T14:23:44.924Z,13.64
2019-02-25T14:26:18.907Z,13.85
2019-02-25T14:28:50.505Z,13.49
2019-02-25T14:31:22.754Z,13.30
2019-02-25T14:33:59.102Z,13.31
2019-02-25T14:36:31.429Z,13.28
2019-02-25T14:39:06.002Z,13.29
2019-02-25T14:41:43.684Z,13.43
2019-02-25T14:44:17.154Z,13.47
2019-02-25T14:46:49.265Z,13.42
2019-02-25T14:49:22.211Z,13.48
2019-02-25T14:51:55.110Z,13.49
2019-02-25T14:54:30.034Z,13.44
2019-02-25T14:57:06.190Z,13.38
2019-02-25T14:59:40.638Z,13.14
2019-02-25T15:02:15.716Z,13.17
2019-02-25T15:04:50.031Z,13.22
2019-02-25T15:07:22.460Z,13.17
2019-02-25T15:09:58.469Z,13.15
2019-02-25T15:12:34.263Z,13.10
2019-02-25T15:15:08.737Z,13.07
2019-02-25T15:17:41.979Z,13.00
2019-02-25T15:20:16.378Z,13.04
2019-02-25T15:22:50.261Z,13.00
2019-02-25T15:25:22.404Z,12.94
2019-02-25T15:27:54.687Z,12.86
2019-02-25T15:30:33.470Z,12.90
2019-02-25T15:33:05.954Z,12.87
2019-02-25T15:35:40.045Z,12.84
2019-02-25T15:38:15.055Z,12.85
2019-02-25T15:40:46.608Z,12.82
2019-02-25T15:43:20.323Z,12.89
2019-02-25T15:45:54.465Z,12.83
2019-02-25T15:48:27.255Z,12.84
2019-02-25T15:51:00.712Z,12.87
2019-02-25T15:53:33.970Z,12.81
2019-02-25T15:56:08.084Z,12.75
2019-02-25T15:58:40.586Z,12.67
2019-02-25T16:01:12.842Z,12.49
2019-02-25T16:03:44.380Z,12.50
2019-02-25T16:06:16.495Z,12.40
2019-02-25T16:08:51.898Z,12.47
2019-02-25T16:11:25.576Z,12.57
2019-02-25T16:14:00.613Z,12.29
2019-02-25T16:16:35.789Z,12.24
2019-02-25T16:19:13.484Z,12.18
2019-02-25T16:21:44.544Z,12.16
2019-02-25T16:24:18.596Z,12.07
2019-02-25T16:26:57.944Z,12.04
2019-02-25T16:29:29.750Z,11.91
2019-02-25T16:32:01.996Z,11.81
2019-02-25T16:34:34.623Z,11.79
2019-02-25T16:37:07.455Z,11.67
2019-02-25T16:39:39.310Z,11.57
2019-02-25T16:42:11.302Z,11.59
2019-02-25T16:44:44.538Z,11.63
2019-02-25T16:47:16.437Z,11.52
2019-02-25T16:49:50.372Z,11.52
2019-02-25T16:52:24.381Z,11.41
2019-02-25T16:54:55.695Z,11.38
2019-02-25T16:57:27.528Z,11.41
2019-02-25T16:59:59.808Z,11.25
2019-02-25T17:02:35.901Z,11.22
2019-02-25T17:05:08.049Z,11.15
2019-02-25T17:07:40.504Z,11.03
2019-02-25T17:10:16.747Z,10.93
2019-02-25T17:12:49.928Z,10.81
2019-02-25T17:15:21.609Z,10.66
2019-02-25T17:17:52.946Z,10.56
2019-02-25T17:20:27.820Z,10.55
2019-02-25T17:22:59.779Z,10.55
2019-02-25T17:25:33.983Z,10.54
2019-02-25T17:28:07.616Z,10.42
2019-02-25T17:30:38.584Z,10.33
2019-02-25T17:33:12.240Z,10.20
2019-02-25T17:35:45.342Z,10.12
2019-02-25T17:38:18.189Z,10.10
2019-02-25T17:40:50.281Z,10.08
2019-02-25T17:43:22.040Z,9.95
2019-02-25T17:45:55.982Z,9.93
2019-02-25T17:48:27.445Z,9.84
2019-02-25T17:50:59.900Z,9.67
2019-02-25T17:53:32.889Z,9.70
2019-02-25T17:56:04.457Z,9.71
2019-02-25T17:58:38.233Z,9.71
2019-02-25T18:01:10.157Z,9.66
2019-02-25T18:04:02.541Z,9.61
2019-02-25T18:06:37.110Z,9.65
2019-02-25T18:09:10.725Z,9.65
2019-02-25T18:11:45.391Z,9.54
2019-02-25T18:14:20.093Z,9.43
2019-02-25T18:16:51.843Z,9.55
2019-02-25T18:19:24.996Z,9.60
2019-02-25T18:21:58.897Z,9.34
2019-02-25T18:24:32.427Z,9.14
2019-02-25T18:27:06.925Z,8.96
2019-02-25T18:29:38.850Z,9.00
2019-02-25T18:32:13.291Z,8.75
2019-02-25T18:34:45.656Z,8.68
2019-02-25T18:37:17.870Z,8.69
2019-02-25T18:39:52.133Z,8.76
2019-02-25T18:42:36.623Z,8.87
2019-02-25T18:45:20.464Z,8.68
2019-02-25T18:47:53.364Z,8.68
2019-02-25T18:50:26.835Z,8.75
2019-02-25T18:52:59.621Z,8.61
2019-02-25T18:55:34.523Z,8.48
2019-02-25T18:58:07.972Z,8.48
2019-02-25T19:00:44.671Z,8.38
2019-02-25T19:03:16.989Z,8.31
2019-02-25T19:05:48.994Z,8.38
2019-02-25T19:08:22.976Z,8.19
2019-02-25T19:10:57.148Z,8.16
2019-02-25T19:13:29.975Z,8.01
2019-02-25T19:16:01.948Z,8.03
2019-02-25T19:18:36.243Z,8.04
2019-02-25T19:21:09.250Z,8.10
2019-02-25T19:23:42.292Z,8.02
2019-02-25T19:26:19.622Z,7.93
2019-02-25T19:28:52.493Z,8.10
2019-02-25T19:31:26.054Z,8.17
2019-02-25T19:34:00.894Z,8.01
2019-02-25T19:36:36.686Z,7.97
2019-02-25T19:39:14.204Z,7.93
2019-02-25T19:41:47.121Z,7.89
2019-02-25T19:44:18.691Z,7.74
2019-02-25T19:46:51.254Z,7.83
2019-02-25T19:49:24.819Z,7.78
2019-02-25T19:51:56.468Z,7.75
2019-02-25T19:54:38.476Z,7.79
2019-02-25T19:57:14.056Z,7.77
2019-02-25T19:59:50.259Z,7.69
2019-02-25T20:02:22.624Z,7.58
2019-02-25T20:04:57.002Z,7.73
2019-02-25T20:07:31.448Z,7.63
2019-02-25T20:10:11.600Z,7.43
2019-02-25T20:12:43.466Z,7.24
2019-02-25T20:15:24.727Z,7.17
2019-02-25T20:17:55.277Z,7.26
2019-02-25T20:20:34.681Z,7.13
2019-02-25T20:23:08.572Z,7.05
2019-02-25T20:25:44.727Z,7.04
2019-02-25T20:28:16.410Z,7.18
2019-02-25T20:30:49.371Z,7.14
2019-02-25T20:33:23.587Z,7.14
2019-02-25T20:35:56.040Z,7.17
2019-02-25T20:38:32.032Z,7.07
2019-02-25T20:41:03.698Z,6.94
2019-02-25T20:43:36.710Z,7.11
2019-02-25T20:46:09.955Z,7.25
2019-02-25T20:48:46.495Z,7.33
2019-02-25T20:51:15.983Z,7.22
2019-02-25T20:53:50.799Z,7.11
2019-02-25T20:56:26.526Z,6.95
2019-02-25T20:59:01.154Z,6.79
2019-02-25T21:01:51.099Z,6.86
2019-02-25T21:04:24.800Z,6.85
2019-02-25T21:06:56.946Z,6.67
2019-02-25T21:09:29.457Z,6.49
2019-02-25T21:12:02.535Z,6.50
2019-02-25T21:14:35.767Z,6.44
2019-02-25T21:17:08.396Z,6.41
2019-02-25T21:19:56.050Z,6.47
2019-02-25T21:22:29.966Z,6.56
2019-02-25T21:25:04.753Z,6.29
2019-02-25T21:27:37.001Z,6.27
2019-02-25T21:30:13.209Z,6.33
2019-02-25T21:32:47.189Z,6.26
2019-02-25T21:35:18.159Z,6.13
2019-02-25T21:37:52.295Z,6.19
2019-02-25T21:40:26.474Z,6.20
2019-02-25T21:42:56.943Z,6.10
2019-02-25T21:45:30.148Z,6.01
2019-02-25T21:48:04.679Z,6.05
2019-02-25T21:50:38.188Z,6.00
2019-02-25T21:53:11.705Z,6.00
2019-02-25T21:55:44.544Z,6.22
2019-02-25T21:58:18.339Z,6.34
2019-02-25T22:00:50.760Z,6.48
2019-02-25T22:03:22.093Z,6.51
2019-02-25T22:05:56.221Z,6.70
2019-02-25T22:08:29.108Z,6.78
2019-02-25T22:11:12.418Z,6.59
2019-02-25T22:13:37.345Z,6.66
2019-02-25T22:16:09.326Z,6.57
2019-02-25T22:18:42.626Z,6.13
2019-02-25T22:21:16.600Z,6.00
2019-02-25T22:23:49.439Z,6.31
2019-02-25T22:26:24.404Z,6.40
2019-02-25T22:28:59.533Z,6.27
2019-02-25T22:31:32.972Z,6.12
2019-02-25T22:34:06.770Z,6.28
2019-02-25T22:36:43.899Z,6.13
2019-02-25T22:39:15.983Z,5.87
2019-02-25T22:41:48.768Z,5.98
2019-02-25T22:44:24.757Z,6.33
2019-02-25T22:47:00.208Z,5.99
2019-02-25T22:49:32.482Z,5.89
2019-02-25T22:52:05.749Z,6.14
2019-02-25T22:54:41.062Z,6.08
2019-02-25T22:57:13.739Z,6.22
2019-02-25T22:59:50.245Z,6.15
2019-02-25T23:02:19.772Z,6.12
2019-02-25T23:04:54.108Z,6.19
2019-02-25T23:07:26.726Z,6.03
2019-02-25T23:09:58.749Z,5.98
2019-02-25T23:12:31.107Z,5.95
2019-02-25T23:15:05.537Z,5.71
2019-02-25T23:17:42.361Z,5.71
2019-02-25T23:20:17.250Z,5.35
2019-02-25T23:22:49.988Z,5.24
2019-02-25T23:25:22.523Z,5.35
2019-02-25T23:27:56.180Z,5.17
2019-02-25T23:30:29.895Z,5.15
2019-02-25T23:33:02.461Z,5.34
2019-02-25T23:35:36.410Z,5.55
2019-02-25T23:38:07.762Z,5.51
2019-02-25T23:40:42.769Z,5.28
2019-02-25T23:43:16.703Z,5.39
2019-02-25T23:45:48.474Z,5.19
2019-02-25T23:48:41.796Z,5.09
2019-02-25T23:51:14.139Z,5.02
2019-02-25T23:53:46.556Z,5.23
2019-02-25T23:56:22.806Z,5.37
2019-02-25T23:58:57.219Z,5.36
